createdAt,value
2022-11-07T00:01:55.207Z,9.46
2022-11-07T00:04:22.654Z,9.51
2022-11-07T00:06:50.178Z,9.48
2022-11-07T00:09:17.602Z,9.45
2022-11-07T00:11:45.047Z,9.49
2022-11-07T00:14:17.037Z,9.50
2022-11-07T00:16:46.207Z,9.52
2022-11-07T00:19:16.701Z,9.54
2022-11-07T00:21:44.478Z,9.52
2022-11-07T00:24:13.709Z,9.55
2022-11-07T00:26:41.035Z,9.50
2022-11-07T00:29:13.494Z,9.51
2022-11-07T00:31:40.888Z,9.55
2022-11-07T00:34:08.435Z,9.46
2022-11-07T00:36:35.993Z,9.43
2022-11-07T00:39:04.256Z,9.43
2022-11-07T00:41:32.143Z,9.51
2022-11-07T00:43:59.622Z,9.48
2022-11-07T00:46:26.955Z,9.45
2022-11-07T00:48:54.491Z,9.40
2022-11-07T00:51:24.281Z,9.46
2022-11-07T00:53:52.519Z,9.45
2022-11-07T00:56:24.745Z,9.47
2022-11-07T00:58:55.079Z,9.46
2022-11-07T01:01:25.537Z,9.44
2022-11-07T01:04:12.218Z,9.42
2022-11-07T01:06:41.878Z,9.45
2022-11-07T01:09:15.993Z,9.48
2022-11-07T01:11:44.760Z,9.55
2022-11-07T01:14:13.211Z,9.54
2022-11-07T01:16:42.051Z,9.55
2022-11-07T01:19:10.247Z,9.45
2022-11-07T01:21:40.487Z,9.32
2022-11-07T01:24:10.476Z,9.30
2022-11-07T01:26:39.468Z,9.24
2022-11-07T01:29:07.836Z,9.28
2022-11-07T01:31:35.347Z,9.30
2022-11-07T01:34:02.874Z,9.24
2022-11-07T01:36:30.760Z,9.27
2022-11-07T01:38:58.544Z,9.21
2022-11-07T01:41:31.572Z,9.23
2022-11-07T01:44:00.712Z,9.23
2022-11-07T01:46:42.598Z,9.17
2022-11-07T01:49:28.327Z,9.21
2022-11-07T01:52:16.132Z,9.17
2022-11-07T01:54:59.906Z,9.18
2022-11-07T01:57:54.091Z,9.16
2022-11-07T02:00:23.220Z,9.09
2022-11-07T02:03:06.514Z,9.04
2022-11-07T02:05:43.827Z,9.06
2022-11-07T02:08:12.504Z,9.05
2022-11-07T02:10:40.975Z,9.06
2022-11-07T02:13:08.979Z,9.01
2022-11-07T02:15:37.031Z,8.94
2022-11-07T02:18:04.691Z,8.93
2022-11-07T02:20:32.222Z,8.83
2022-11-07T02:23:20.528Z,8.77
2022-11-07T02:25:48.110Z,8.75
2022-11-07T02:28:16.807Z,8.76
2022-11-07T02:30:44.164Z,8.73
2022-11-07T02:33:20.299Z,8.72
2022-11-07T02:35:50.839Z,8.78
2022-11-07T02:38:21.021Z,8.78
2022-11-07T02:40:52.696Z,8.78
2022-11-07T02:43:21.779Z,8.73
2022-11-07T02:45:50.713Z,8.68
2022-11-07T02:48:18.309Z,8.73
2022-11-07T02:50:46.291Z,8.69
2022-11-07T02:53:14.039Z,8.64
2022-11-07T02:55:41.580Z,8.63
2022-11-07T02:58:09.024Z,8.64
2022-11-07T03:00:36.469Z,8.75
2022-11-07T03:03:03.980Z,8.75
2022-11-07T03:05:31.428Z,8.54
2022-11-07T03:07:58.851Z,8.68
2022-11-07T03:10:26.337Z,8.68
2022-11-07T03:12:53.736Z,8.62
2022-11-07T03:15:21.260Z,8.60
2022-11-07T03:17:50.408Z,8.58
2022-11-07T03:20:17.804Z,8.58
2022-11-07T03:22:47.336Z,8.48
2022-11-07T03:25:15.070Z,8.43
2022-11-07T03:27:49.392Z,8.42
2022-11-07T03:30:17.690Z,8.30
2022-11-07T03:32:45.063Z,8.24
2022-11-07T03:35:12.884Z,8.17
2022-11-07T03:37:40.243Z,8.23
2022-11-07T03:40:08.271Z,8.32
2022-11-07T03:42:43.242Z,8.14
2022-11-07T03:45:12.539Z,8.09
2022-11-07T03:47:41.423Z,7.88
2022-11-07T03:50:11.032Z,7.96
2022-11-07T03:52:38.485Z,7.80
2022-11-07T03:55:06.545Z,7.73
2022-11-07T03:57:34.123Z,7.87
2022-11-07T04:00:01.775Z,7.89
2022-11-07T04:02:39.518Z,8.03
2022-11-07T04:05:07.811Z,8.06
2022-11-07T04:07:35.350Z,8.07
2022-11-07T04:10:02.811Z,8.04
2022-11-07T04:12:48.709Z,8.02
2022-11-07T04:15:34.664Z,7.93
2022-11-07T04:18:02.255Z,7.91
2022-11-07T04:20:29.697Z,7.97
2022-11-07T04:22:57.116Z,7.98
2022-11-07T04:25:44.568Z,8.07
2022-11-07T04:28:12.037Z,8.04
2022-11-07T04:30:39.361Z,7.97
2022-11-07T04:33:06.746Z,7.97
2022-11-07T04:35:34.129Z,8.00
2022-11-07T04:38:01.791Z,7.86
2022-11-07T04:40:29.818Z,7.88
2022-11-07T04:42:57.618Z,7.94
2022-11-07T04:45:25.024Z,8.04
2022-11-07T04:47:52.591Z,8.00
2022-11-07T04:50:20.299Z,7.92
2022-11-07T04:52:48.048Z,8.04
2022-11-07T04:55:27.442Z,7.82
2022-11-07T04:57:54.898Z,7.90
2022-11-07T05:00:22.347Z,7.79
2022-11-07T05:02:50.699Z,7.66
2022-11-07T05:05:18.899Z,7.60
2022-11-07T05:07:46.734Z,7.38
2022-11-07T05:10:26.134Z,7.30
2022-11-07T05:12:54.151Z,7.32
2022-11-07T05:15:21.600Z,7.29
2022-11-07T05:17:49.092Z,7.28
2022-11-07T05:20:32.149Z,7.21
2022-11-07T05:23:15.905Z,7.18
2022-11-07T05:25:53.275Z,7.12
2022-11-07T05:28:31.206Z,7.21
2022-11-07T05:31:04.936Z,7.25
2022-11-07T05:33:32.759Z,6.97
2022-11-07T05:36:13.064Z,7.07
2022-11-07T05:38:45.876Z,7.07
2022-11-07T05:41:15.450Z,7.15
2022-11-07T05:43:43.361Z,7.15
2022-11-07T05:46:11.387Z,7.17
2022-11-07T05:48:39.308Z,7.02
2022-11-07T05:51:07.739Z,6.93
2022-11-07T05:53:35.415Z,6.97
2022-11-07T05:56:02.858Z,7.06
2022-11-07T05:58:30.517Z,7.12
2022-11-07T06:01:03.140Z,7.07
2022-11-07T06:03:31.419Z,7.08
2022-11-07T06:06:06.517Z,7.13
2022-11-07T06:08:34.012Z,7.00
2022-11-07T06:11:04.945Z,7.12
2022-11-07T06:13:35.661Z,7.01
2022-11-07T06:16:03.739Z,6.97
2022-11-07T06:18:31.403Z,6.93
2022-11-07T06:21:01.526Z,6.87
2022-11-07T06:23:29.104Z,6.92
2022-11-07T06:25:56.579Z,6.88
2022-11-07T06:28:24.017Z,6.92
2022-11-07T06:30:51.883Z,7.04
2022-11-07T06:33:19.829Z,6.83
2022-11-07T06:35:47.622Z,6.93
2022-11-07T06:38:15.627Z,7.03
2022-11-07T06:40:43.700Z,6.99
2022-11-07T06:43:11.350Z,7.21
2022-11-07T06:45:38.963Z,7.22
2022-11-07T06:48:07.037Z,7.22
2022-11-07T06:50:35.710Z,7.35
2022-11-07T06:53:08.713Z,7.33
2022-11-07T06:55:37.078Z,7.40
2022-11-07T06:58:08.448Z,7.43
2022-11-07T07:00:37.418Z,7.51
2022-11-07T07:03:05.629Z,7.42
2022-11-07T07:05:34.692Z,7.62
2022-11-07T07:08:03.140Z,7.76
2022-11-07T07:10:41.872Z,7.79
2022-11-07T07:13:14.351Z,7.79
2022-11-07T07:15:50.795Z,7.84
2022-11-07T07:18:19.826Z,8.03
2022-11-07T07:20:48.755Z,8.08
2022-11-07T07:23:20.841Z,8.14
2022-11-07T07:25:49.355Z,8.03
2022-11-07T07:28:17.531Z,8.16
2022-11-07T07:30:50.522Z,8.21
2022-11-07T07:33:20.113Z,8.32
2022-11-07T07:35:47.728Z,8.21
2022-11-07T07:38:15.211Z,8.23
2022-11-07T07:40:42.574Z,8.28
2022-11-07T07:43:10.471Z,8.32
2022-11-07T07:45:37.952Z,8.33
2022-11-07T07:48:05.816Z,8.32
2022-11-07T07:50:33.756Z,8.48
2022-11-07T07:53:06.230Z,8.66
2022-11-07T07:55:36.432Z,8.78
2022-11-07T07:58:03.865Z,8.82
2022-11-07T08:00:31.307Z,8.95
2022-11-07T08:03:11.053Z,9.06
2022-11-07T08:05:57.046Z,9.26
2022-11-07T08:08:25.920Z,9.37
2022-11-07T08:10:56.649Z,9.44
2022-11-07T08:13:25.616Z,10.20
2022-11-07T08:15:53.767Z,11.45
2022-11-07T08:18:22.428Z,13.38
2022-11-07T08:20:51.520Z,14.80
2022-11-07T08:23:19.538Z,15.28
2022-11-07T08:25:54.604Z,15.36
2022-11-07T08:28:24.256Z,15.74
2022-11-07T08:31:05.710Z,16.17
2022-11-07T08:33:33.355Z,16.22
2022-11-07T08:36:02.939Z,15.81
2022-11-07T08:38:32.113Z,15.31
2022-11-07T08:40:59.838Z,14.50
2022-11-07T08:43:27.309Z,13.83
2022-11-07T08:45:55.843Z,13.66
2022-11-07T08:48:23.906Z,13.40
2022-11-07T08:50:56.523Z,12.82
2022-11-07T08:53:25.790Z,12.70
2022-11-07T08:56:00.023Z,12.60
2022-11-07T08:58:30.191Z,12.63
2022-11-07T09:00:58.711Z,12.54
2022-11-07T09:03:46.574Z,12.46
2022-11-07T09:06:15.485Z,12.46
2022-11-07T09:08:42.897Z,12.43
2022-11-07T09:11:10.381Z,12.33
2022-11-07T09:13:37.963Z,12.26
2022-11-07T09:16:05.897Z,12.14
2022-11-07T09:18:34.101Z,12.21
2022-11-07T09:21:01.604Z,12.47
2022-11-07T09:23:29.040Z,12.38
2022-11-07T09:26:00.434Z,12.19
2022-11-07T09:28:28.677Z,12.28
2022-11-07T09:30:57.736Z,12.28
2022-11-07T09:33:25.987Z,12.34
2022-11-07T09:35:53.576Z,12.43
2022-11-07T09:38:20.992Z,12.44
2022-11-07T09:40:54.672Z,12.53
2022-11-07T09:44:06.624Z,12.60
2022-11-07T09:47:07.823Z,12.61
2022-11-07T09:49:42.926Z,12.56
2022-11-07T09:52:36.708Z,12.46
2022-11-07T09:55:26.870Z,12.58
2022-11-07T09:57:58.743Z,12.72
2022-11-07T10:00:30.181Z,12.98
2022-11-07T10:03:01.891Z,12.93
2022-11-07T10:05:38.188Z,13.04
2022-11-07T10:08:28.167Z,13.02
2022-11-07T10:11:01.079Z,13.04
2022-11-07T10:13:56.349Z,13.10
2022-11-07T10:16:29.796Z,13.18
2022-11-07T10:19:36.076Z,13.10
2022-11-07T10:22:25.459Z,13.13
2022-11-07T10:25:05.759Z,13.21
2022-11-07T10:27:34.584Z,13.28
2022-11-07T10:30:02.182Z,13.23
2022-11-07T10:32:41.553Z,13.31
2022-11-07T10:35:30.143Z,13.46
2022-11-07T10:38:04.755Z,13.42
2022-11-07T10:40:38.577Z,13.45
2022-11-07T10:43:14.757Z,13.55
2022-11-07T10:45:42.771Z,13.55
2022-11-07T10:50:58.461Z,13.61
2022-11-07T10:53:26.931Z,13.52
2022-11-07T10:56:44.458Z,13.67
2022-11-07T10:59:24.686Z,13.74
2022-11-07T11:01:54.257Z,13.79
2022-11-07T11:04:30.228Z,13.85
2022-11-07T11:07:13.479Z,13.87
2022-11-07T11:09:53.321Z,13.93
2022-11-07T11:12:26.309Z,14.01
2022-11-07T11:15:11.584Z,13.96
2022-11-07T11:17:39.571Z,14.00
2022-11-07T11:20:26.793Z,14.02
2022-11-07T11:22:54.648Z,14.07
2022-11-07T11:25:23.899Z,14.14
2022-11-07T11:27:57.107Z,14.21
2022-11-07T11:30:25.473Z,14.35
2022-11-07T11:33:12.962Z,14.22
2022-11-07T11:36:02.564Z,14.20
2022-11-07T11:38:39.895Z,14.21
2022-11-07T11:41:50.215Z,14.27
2022-11-07T11:44:26.404Z,14.16
2022-11-07T11:46:59.991Z,14.24
2022-11-07T11:49:37.940Z,14.24
2022-11-07T11:52:20.743Z,14.20
2022-11-07T11:54:51.024Z,14.18
2022-11-07T11:57:39.870Z,14.21
2022-11-07T12:00:14.403Z,14.36
2022-11-07T12:02:51.178Z,14.36
2022-11-07T12:05:29.475Z,14.33
2022-11-07T12:08:14.923Z,14.51
2022-11-07T12:10:52.646Z,14.43
2022-11-07T12:13:39.024Z,14.38
2022-11-07T12:16:06.412Z,14.36
2022-11-07T12:18:59.091Z,14.37
2022-11-07T12:21:33.952Z,14.38
2022-11-07T12:24:49.183Z,14.44
2022-11-07T12:27:37.692Z,14.50
2022-11-07T12:30:11.113Z,14.49
2022-11-07T12:33:12.513Z,14.54
2022-11-07T12:36:06.320Z,14.56
2022-11-07T12:38:33.870Z,14.57
2022-11-07T12:41:23.992Z,14.56
2022-11-07T12:44:10.146Z,14.63
2022-11-07T12:46:51.391Z,14.62
2022-11-07T12:49:47.667Z,14.50
2022-11-07T12:52:29.245Z,14.45
2022-11-07T12:55:04.747Z,14.49
2022-11-07T12:57:34.308Z,14.57
2022-11-07T13:00:07.143Z,14.59
2022-11-07T13:02:51.184Z,14.64
2022-11-07T13:05:29.343Z,14.69
2022-11-07T13:08:00.904Z,14.70
2022-11-07T13:10:47.520Z,14.66
2022-11-07T13:13:25.800Z,14.72
2022-11-07T13:16:14.548Z,14.71
2022-11-07T13:21:09.471Z,14.79
2022-11-07T13:23:36.991Z,14.70
2022-11-07T13:26:26.244Z,14.73
2022-11-07T13:29:02.455Z,14.83
2022-11-07T13:31:38.537Z,14.82
2022-11-07T13:34:18.566Z,14.78
2022-11-07T13:36:49.336Z,14.79
2022-11-07T13:39:18.370Z,14.84
2022-11-07T13:41:46.267Z,14.83
2022-11-07T13:44:28.028Z,14.76
2022-11-07T13:47:01.922Z,14.93
2022-11-07T13:49:44.969Z,14.82
2022-11-07T13:52:40.530Z,14.84
2022-11-07T13:55:29.231Z,14.84
2022-11-07T13:58:03.886Z,14.83
2022-11-07T14:00:33.683Z,14.79
2022-11-07T14:03:35.529Z,14.72
2022-11-07T14:06:03.543Z,14.79
2022-11-07T14:08:40.893Z,14.77
2022-11-07T14:11:17.760Z,14.78
2022-11-07T14:13:48.863Z,14.78
2022-11-07T14:16:27.962Z,14.78
2022-11-07T14:19:02.185Z,14.77
2022-11-07T14:21:32.689Z,14.74
2022-11-07T14:24:00.348Z,14.70
2022-11-07T14:26:33.621Z,14.65
2022-11-07T14:29:02.326Z,14.63
2022-11-07T14:31:35.681Z,14.58
2022-11-07T14:34:17.535Z,14.56
2022-11-07T14:36:51.862Z,14.56
2022-11-07T14:39:21.386Z,14.55
2022-11-07T14:41:49.923Z,14.53
2022-11-07T14:44:53.284Z,14.50
2022-11-07T14:47:24.812Z,14.45
2022-11-07T14:49:56.477Z,14.41
2022-11-07T14:52:36.320Z,14.42
2022-11-07T14:55:11.458Z,14.37
2022-11-07T14:57:40.364Z,14.31
2022-11-07T15:00:13.361Z,14.30
2022-11-07T15:02:42.015Z,14.21
2022-11-07T15:05:38.248Z,14.23
2022-11-07T15:08:05.820Z,14.18
2022-11-07T15:10:38.934Z,14.18
2022-11-07T15:13:24.432Z,14.15
2022-11-07T15:16:14.902Z,14.16
2022-11-07T15:18:45.276Z,14.14
2022-11-07T15:21:45.517Z,14.15
2022-11-07T15:24:34.327Z,14.12
2022-11-07T15:27:03.170Z,14.05
2022-11-07T15:29:33.662Z,14.03
2022-11-07T15:32:14.287Z,14.00
2022-11-07T15:35:03.754Z,14.01
2022-11-07T15:37:30.358Z,13.94
2022-11-07T15:39:57.798Z,13.93
2022-11-07T15:42:25.223Z,13.89
2022-11-07T15:44:52.735Z,13.85
2022-11-07T15:47:22.126Z,13.83
2022-11-07T15:49:49.874Z,13.79
2022-11-07T15:52:17.290Z,13.74
2022-11-07T15:54:44.842Z,13.68
2022-11-07T15:57:12.945Z,13.64
2022-11-07T15:59:40.514Z,13.55
2022-11-07T16:02:15.460Z,13.51
2022-11-07T16:04:43.896Z,13.43
2022-11-07T16:07:17.479Z,13.40
2022-11-07T16:09:45.961Z,13.25
2022-11-07T16:12:14.139Z,13.23
2022-11-07T16:14:44.639Z,13.16
2022-11-07T16:17:18.100Z,13.06
2022-11-07T16:19:46.306Z,13.07
2022-11-07T16:22:15.429Z,12.96
2022-11-07T16:24:42.827Z,12.90
2022-11-07T16:27:15.748Z,12.90
2022-11-07T16:29:44.356Z,12.79
2022-11-07T16:32:18.395Z,12.87
2022-11-07T16:34:46.668Z,12.75
2022-11-07T16:37:14.305Z,12.80
2022-11-07T16:39:41.683Z,12.69
2022-11-07T16:42:14.166Z,12.66
2022-11-07T16:44:42.081Z,12.63
2022-11-07T16:47:14.465Z,12.57
2022-11-07T16:49:42.554Z,12.63
2022-11-07T16:52:18.824Z,12.66
2022-11-07T16:54:46.460Z,12.64
2022-11-07T16:57:16.470Z,12.67
2022-11-07T16:59:45.918Z,12.66
2022-11-07T17:02:21.630Z,12.46
2022-11-07T17:04:51.611Z,12.52
2022-11-07T17:07:21.196Z,12.52
2022-11-07T17:09:49.079Z,12.49
2022-11-07T17:12:18.851Z,12.40
2022-11-07T17:14:46.708Z,12.26
2022-11-07T17:17:16.093Z,12.17
2022-11-07T17:19:43.613Z,12.17
2022-11-07T17:22:12.037Z,12.19
2022-11-07T17:24:40.452Z,12.18
2022-11-07T17:27:25.366Z,12.10
2022-11-07T17:29:54.138Z,11.98
2022-11-07T17:32:21.633Z,11.92
2022-11-07T17:35:10.618Z,11.89
2022-11-07T17:37:36.698Z,11.75
2022-11-07T17:40:05.416Z,11.78
2022-11-07T17:42:37.760Z,11.68
2022-11-07T17:45:06.449Z,11.65
2022-11-07T17:47:34.768Z,11.55
2022-11-07T17:50:02.918Z,11.39
2022-11-07T17:52:30.652Z,11.33
2022-11-07T17:54:58.630Z,11.31
2022-11-07T17:57:26.049Z,11.31
2022-11-07T17:59:53.422Z,11.40
2022-11-07T18:02:20.964Z,11.39
2022-11-07T18:04:48.453Z,11.42
2022-11-07T18:07:16.491Z,11.35
2022-11-07T18:09:43.917Z,11.25
2022-11-07T18:12:11.312Z,11.29
2022-11-07T18:14:38.785Z,11.17
2022-11-07T18:17:06.204Z,11.08
2022-11-07T18:19:33.916Z,11.05
2022-11-07T18:22:01.345Z,11.12
2022-11-07T18:24:28.899Z,10.96
2022-11-07T18:26:56.290Z,11.00
2022-11-07T18:29:24.920Z,10.91
2022-11-07T18:31:52.498Z,10.96
2022-11-07T18:34:20.584Z,10.99
2022-11-07T18:36:48.047Z,10.87
2022-11-07T18:39:24.142Z,10.96
2022-11-07T18:41:53.967Z,10.90
2022-11-07T18:44:21.503Z,10.91
2022-11-07T18:46:48.922Z,10.84
2022-11-07T18:49:18.672Z,10.83
2022-11-07T18:51:46.033Z,10.83
2022-11-07T18:54:14.112Z,10.80
2022-11-07T18:56:42.458Z,10.65
2022-11-07T18:59:10.900Z,10.65
2022-11-07T19:01:38.687Z,10.59
2022-11-07T19:04:07.581Z,10.56
2022-11-07T19:06:35.078Z,10.55
2022-11-07T19:09:03.545Z,10.63
2022-11-07T19:11:31.437Z,10.58
2022-11-07T19:14:02.944Z,10.52
2022-11-07T19:16:30.916Z,10.47
2022-11-07T19:18:59.726Z,10.44
2022-11-07T19:21:27.212Z,10.34
2022-11-07T19:23:54.632Z,10.34
2022-11-07T19:26:22.013Z,10.38
2022-11-07T19:28:50.530Z,10.37
2022-11-07T19:31:17.971Z,10.41
2022-11-07T19:33:45.357Z,10.41
2022-11-07T19:36:18.367Z,10.46
2022-11-07T19:38:46.375Z,10.42
2022-11-07T19:41:15.530Z,10.40
2022-11-07T19:43:45.363Z,10.26
2022-11-07T19:46:19.808Z,10.22
2022-11-07T19:48:48.238Z,10.24
2022-11-07T19:51:21.979Z,10.23
2022-11-07T19:53:59.077Z,10.23
2022-11-07T19:56:29.305Z,10.20
2022-11-07T19:58:59.442Z,10.21
2022-11-07T20:01:31.460Z,10.20
2022-11-07T20:04:03.425Z,10.18
2022-11-07T20:06:36.265Z,10.19
2022-11-07T20:09:09.118Z,10.14
2022-11-07T20:11:36.810Z,9.99
2022-11-07T20:14:04.544Z,9.93
2022-11-07T20:16:33.193Z,9.88
2022-11-07T20:19:01.212Z,9.86
2022-11-07T20:21:30.311Z,9.91
2022-11-07T20:23:59.487Z,9.92
2022-11-07T20:26:29.872Z,9.91
2022-11-07T20:28:57.919Z,9.95
2022-11-07T20:31:29.165Z,9.93
2022-11-07T20:34:05.528Z,9.94
2022-11-07T20:36:33.481Z,9.84
2022-11-07T20:39:01.983Z,9.67
2022-11-07T20:41:30.161Z,9.65
2022-11-07T20:44:01.671Z,9.61
2022-11-07T20:46:39.159Z,9.61
2022-11-07T20:49:09.176Z,9.63
2022-11-07T20:51:36.937Z,9.57
2022-11-07T20:54:04.813Z,9.60
2022-11-07T20:56:32.741Z,9.57
2022-11-07T20:59:00.933Z,9.45
2022-11-07T21:01:37.310Z,9.41
2022-11-07T21:04:08.404Z,9.42
2022-11-07T21:06:36.978Z,9.32
2022-11-07T21:09:04.998Z,9.32
2022-11-07T21:11:33.419Z,9.38
2022-11-07T21:14:01.047Z,9.38
2022-11-07T21:16:29.537Z,9.38
2022-11-07T21:18:56.971Z,9.40
2022-11-07T21:21:27.564Z,9.41
2022-11-07T21:23:57.280Z,9.33
2022-11-07T21:26:28.559Z,9.36
2022-11-07T21:28:56.419Z,9.37
2022-11-07T21:31:27.223Z,9.43
2022-11-07T21:33:55.754Z,9.42
2022-11-07T21:36:26.123Z,9.38
2022-11-07T21:38:55.060Z,9.46
2022-11-07T21:41:22.644Z,9.15
2022-11-07T21:43:50.568Z,9.12
2022-11-07T21:46:20.802Z,9.08
2022-11-07T21:48:50.627Z,9.10
2022-11-07T21:51:20.639Z,9.12
2022-11-07T21:53:48.806Z,9.07
2022-11-07T21:56:27.832Z,8.95
2022-11-07T21:58:58.917Z,9.09
2022-11-07T22:01:27.358Z,9.05
2022-11-07T22:04:11.792Z,9.13
2022-11-07T22:06:41.893Z,9.07
2022-11-07T22:09:10.791Z,9.02
2022-11-07T22:11:38.878Z,8.92
2022-11-07T22:14:06.326Z,8.94
2022-11-07T22:16:33.777Z,8.83
2022-11-07T22:19:01.573Z,8.81
2022-11-07T22:21:30.553Z,8.94
2022-11-07T22:23:58.614Z,8.94
2022-11-07T22:26:27.739Z,8.94
2022-11-07T22:28:55.417Z,8.96
2022-11-07T22:31:30.135Z,9.00
2022-11-07T22:33:59.725Z,8.96
2022-11-07T22:36:27.630Z,9.07
2022-11-07T22:38:58.808Z,8.97
2022-11-07T22:41:27.512Z,9.01
2022-11-07T22:43:55.548Z,9.01
2022-11-07T22:46:27.918Z,8.97
2022-11-07T22:48:56.369Z,8.87
2022-11-07T22:51:26.220Z,8.69
2022-11-07T22:54:03.472Z,8.54
2022-11-07T22:56:32.577Z,8.58
2022-11-07T22:59:00.029Z,8.55
2022-11-07T23:01:30.511Z,8.65
2022-11-07T23:04:02.187Z,8.68
2022-11-07T23:06:30.391Z,8.70
2022-11-07T23:08:59.036Z,8.81
2022-11-07T23:11:50.555Z,8.77
2022-11-07T23:14:21.093Z,8.87
2022-11-07T23:16:50.695Z,8.80
2022-11-07T23:19:20.193Z,8.67
2022-11-07T23:21:48.932Z,8.42
2022-11-07T23:24:16.474Z,8.56
2022-11-07T23:26:44.229Z,8.55
2022-11-07T23:29:20.750Z,8.55
2022-11-07T23:31:49.928Z,8.59
2022-11-07T23:34:18.780Z,8.59
2022-11-07T23:36:46.325Z,8.61
2022-11-07T23:39:16.368Z,8.63
2022-11-07T23:41:44.451Z,8.54
2022-11-07T23:44:12.215Z,8.41
2022-11-07T23:46:58.824Z,8.30
2022-11-07T23:49:55.142Z,8.37
2022-11-07T23:52:22.756Z,8.43
2022-11-07T23:55:08.824Z,8.31
2022-11-07T23:57:56.973Z,8.34
